createdAt,value
2022-12-26T15:53:12.115Z,2.78
2022-12-26T15:56:00.268Z,2.22
2022-12-26T15:58:55.030Z,2.13
2022-12-26T16:01:37.969Z,2.35
2022-12-26T16:04:09.982Z,3.00
2022-12-26T16:07:04.360Z,2.60
2022-12-26T16:09:42.442Z,2.40
2022-12-26T16:12:23.230Z,2.33
2022-12-26T16:15:00.838Z,2.13
2022-12-26T16:17:29.458Z,2.53
2022-12-26T16:19:57.878Z,3.00
2022-12-26T16:22:47.171Z,2.53
2022-12-26T16:25:19.878Z,2.67
2022-12-26T16:27:50.003Z,2.78
2022-12-26T16:30:21.004Z,2.40
2022-12-26T16:32:49.335Z,2.90
2022-12-26T16:35:21.781Z,2.58
2022-12-26T16:37:50.947Z,2.75
2022-12-26T16:40:24.587Z,3.63
2022-12-26T16:43:01.163Z,2.97
2022-12-26T16:45:31.599Z,3.15
2022-12-26T16:47:59.931Z,1.00
2022-12-26T16:50:32.765Z,1.20
2022-12-26T16:53:10.656Z,1.35
2022-12-26T16:55:43.714Z,1.80
2022-12-26T16:58:23.647Z,1.20
2022-12-26T17:01:02.336Z,1.15
2022-12-26T17:03:39.332Z,1.52
2022-12-26T17:06:10.074Z,1.10
2022-12-26T17:08:42.876Z,0.90
2022-12-26T17:11:12.396Z,1.83
2022-12-26T17:13:40.648Z,1.20
2022-12-26T17:16:11.100Z,1.15
2022-12-26T17:18:46.572Z,1.25
2022-12-26T17:21:29.812Z,0.85
2022-12-26T17:24:21.227Z,2.20
2022-12-26T17:26:54.865Z,1.25
2022-12-26T17:29:47.660Z,1.77
2022-12-26T17:32:20.684Z,1.08
2022-12-26T17:34:49.173Z,1.02
2022-12-26T17:37:22.738Z,0.73
2022-12-26T17:40:03.699Z,0.70
2022-12-26T17:42:44.358Z,0.88
2022-12-26T17:45:17.390Z,1.10
2022-12-26T17:47:45.478Z,1.77
2022-12-26T17:50:14.182Z,0.80
2022-12-26T17:52:42.302Z,1.02
2022-12-26T17:55:17.773Z,0.60
2022-12-26T17:57:46.861Z,0.57
2022-12-26T18:00:19.822Z,0.70
2022-12-26T18:02:47.810Z,0.73
2022-12-26T18:05:16.482Z,0.60
2022-12-26T18:07:44.723Z,1.00
2022-12-26T18:10:18.907Z,1.15
2022-12-26T18:12:48.538Z,0.90
2022-12-26T18:15:16.743Z,1.27
2022-12-26T18:17:45.096Z,1.60
2022-12-26T18:20:17.615Z,1.45
2022-12-26T18:22:46.212Z,1.20
2022-12-26T18:25:14.467Z,1.48
2022-12-26T18:27:42.360Z,1.50
2022-12-26T18:30:16.350Z,1.40
2022-12-26T18:32:44.511Z,1.25
2022-12-26T18:35:12.707Z,0.93
2022-12-26T18:37:43.893Z,1.20
2022-12-26T18:40:26.240Z,2.05
2022-12-26T18:42:54.021Z,1.67
2022-12-26T18:45:23.072Z,2.45
2022-12-26T18:47:50.913Z,2.03
2022-12-26T18:50:18.840Z,1.95
2022-12-26T18:52:53.166Z,2.88
2022-12-26T18:55:21.807Z,1.80
2022-12-26T18:57:49.623Z,3.60
2022-12-26T19:00:18.423Z,1.42
2022-12-26T19:02:48.326Z,1.70
2022-12-26T19:05:19.191Z,2.17
2022-12-26T19:07:48.239Z,2.67
2022-12-26T19:10:17.222Z,1.90
2022-12-26T19:12:45.466Z,2.15
2022-12-26T19:15:14.563Z,2.05
2022-12-26T19:17:43.713Z,2.10
2022-12-26T19:20:18.944Z,2.38
2022-12-26T19:22:47.240Z,3.37
2022-12-26T19:25:15.824Z,1.38
2022-12-26T19:27:43.589Z,1.85
2022-12-26T19:30:12.444Z,1.33
2022-12-26T19:32:40.197Z,0.88
2022-12-26T19:35:08.947Z,1.30
2022-12-26T19:37:38.160Z,1.75
2022-12-26T19:40:07.737Z,1.15
2022-12-26T19:42:37.206Z,1.30
2022-12-26T19:45:05.293Z,0.88
2022-12-26T19:47:34.360Z,1.02
2022-12-26T19:50:02.248Z,1.10
2022-12-26T19:52:30.275Z,0.90
2022-12-26T19:54:59.434Z,0.85
2022-12-26T19:57:27.210Z,1.80
2022-12-26T19:59:54.981Z,1.70
2022-12-26T20:02:22.922Z,1.20
2022-12-26T20:04:50.786Z,1.83
2022-12-26T20:07:18.547Z,0.60
2022-12-26T20:09:46.458Z,0.77
2022-12-26T20:12:15.597Z,1.10
2022-12-26T20:14:43.368Z,0.80
2022-12-26T20:17:12.235Z,0.85
2022-12-26T20:19:40.351Z,1.02
2022-12-26T20:22:08.697Z,1.20
2022-12-26T20:24:36.502Z,1.15
2022-12-26T20:27:04.687Z,1.65
2022-12-26T20:29:33.928Z,1.20
2022-12-26T20:32:01.727Z,1.13
2022-12-26T20:34:30.073Z,3.00
2022-12-26T20:36:57.824Z,1.80
2022-12-26T20:39:25.997Z,0.75
2022-12-26T20:41:54.044Z,0.75
2022-12-26T20:44:22.038Z,0.60
2022-12-26T20:46:51.128Z,1.00
2022-12-26T20:49:18.926Z,0.75
2022-12-26T20:51:47.034Z,0.90
2022-12-26T20:54:16.791Z,0.93
2022-12-26T20:56:45.826Z,0.80
2022-12-26T20:59:13.805Z,0.90
2022-12-26T21:01:41.900Z,0.60
